sensor_id;sensor_type;location;lat;lon;timestamp;temperature;humidity
31729;DHT22;18309;43.658;1.312;2023-11-19T00:02:19;11.30;99.90
31729;DHT22;18309;43.658;1.312;2023-11-19T00:04:44;11.30;99.90
31729;DHT22;18309;43.658;1.312;2023-11-19T00:07:10;11.30;99.90
31729;DHT22;18309;43.658;1.312;2023-11-19T00:09:38;11.30;99.90
31729;DHT22;18309;43.658;1.312;2023-11-19T00:12:05;11.30;99.90
31729;DHT22;18309;43.658;1.312;2023-11-19T00:14:31;11.30;99.90
31729;DHT22;18309;43.658;1.312;2023-11-19T00:16:57;11.20;99.90
31729;DHT22;18309;43.658;1.312;2023-11-19T00:19:22;11.20;99.90
31729;DHT22;18309;43.658;1.312;2023-11-19T00:21:48;11.20;99.90
31729;DHT22;18309;43.658;1.312;2023-11-19T00:24:14;11.20;99.90
31729;DHT22;18309;43.658;1.312;2023-11-19T00:26:42;11.20;99.90
31729;DHT22;18309;43.658;1.312;2023-11-19T00:29:08;11.10;99.90
31729;DHT22;18309;43.658;1.312;2023-11-19T00:31:33;11.10;99.90
31729;DHT22;18309;43.658;1.312;2023-11-19T00:33:59;11.10;99.90
31729;DHT22;18309;43.658;1.312;2023-11-19T00:36:25;11.10;99.90
31729;DHT22;18309;43.658;1.312;2023-11-19T00:38:51;11.10;99.90
31729;DHT22;18309;43.658;1.312;2023-11-19T00:41:18;11.10;99.90
31729;DHT22;18309;43.658;1.312;2023-11-19T00:43:44;11.10;99.90
31729;DHT22;18309;43.658;1.312;2023-11-19T00:46:10;11.00;99.90
31729;DHT22;18309;43.658;1.312;2023-11-19T00:48:39;11.00;99.90
31729;DHT22;18309;43.658;1.312;2023-11-19T00:51:05;11.00;99.90
31729;DHT22;18309;43.658;1.312;2023-11-19T00:53:31;11.00;99.90
31729;DHT22;18309;43.658;1.312;2023-11-19T00:55:57;11.00;99.90
31729;DHT22;18309;43.658;1.312;2023-11-19T00:58:23;11.00;99.90
31729;DHT22;18309;43.658;1.312;2023-11-19T01:00:49;11.00;99.90
31729;DHT22;18309;43.658;1.312;2023-11-19T01:03:15;11.00;99.90
31729;DHT22;18309;43.658;1.312;2023-11-19T01:05:43;10.90;99.90
31729;DHT22;18309;43.658;1.312;2023-11-19T01:08:10;10.90;99.90
31729;DHT22;18309;43.658;1.312;2023-11-19T01:10:38;10.90;99.90
31729;DHT22;18309;43.658;1.312;2023-11-19T01:13:04;10.90;99.90
31729;DHT22;18309;43.658;1.312;2023-11-19T01:15:31;10.80;99.90
31729;DHT22;18309;43.658;1.312;2023-11-19T01:17:57;10.80;99.90
31729;DHT22;18309;43.658;1.312;2023-11-19T01:20:23;10.80;99.90
31729;DHT22;18309;43.658;1.312;2023-11-19T01:22:49;10.80;99.90
31729;DHT22;18309;43.658;1.312;2023-11-19T01:25:15;10.80;99.90
31729;DHT22;18309;43.658;1.312;2023-11-19T01:27:41;10.80;99.90
31729;DHT22;18309;43.658;1.312;2023-11-19T01:30:09;10.70;99.90
31729;DHT22;18309;43.658;1.312;2023-11-19T01:32:38;10.70;99.90
31729;DHT22;18309;43.658;1.312;2023-11-19T01:35:04;10.60;99.90
31729;DHT22;18309;43.658;1.312;2023-11-19T01:37:30;10.70;99.90
31729;DHT22;18309;43.658;1.312;2023-11-19T01:39:56;10.60;99.90
31729;DHT22;18309;43.658;1.312;2023-11-19T01:42:23;10.70;99.90
31729;DHT22;18309;43.658;1.312;2023-11-19T01:45:00;10.60;99.90
31729;DHT22;18309;43.658;1.312;2023-11-19T01:47:27;10.60;99.90
31729;DHT22;18309;43.658;1.312;2023-11-19T01:49:54;10.60;99.90
31729;DHT22;18309;43.658;1.312;2023-11-19T01:52:22;10.60;99.90
31729;DHT22;18309;43.658;1.312;2023-11-19T01:54:47;10.60;99.90
31729;DHT22;18309;43.658;1.312;2023-11-19T01:57:14;10.50;99.90
31729;DHT22;18309;43.658;1.312;2023-11-19T01:59:40;10.50;99.90
31729;DHT22;18309;43.658;1.312;2023-11-19T02:02:07;10.60;99.90
31729;DHT22;18309;43.658;1.312;2023-11-19T02:04:33;10.50;99.90
31729;DHT22;18309;43.658;1.312;2023-11-19T02:07:00;10.50;99.90
31729;DHT22;18309;43.658;1.312;2023-11-19T02:09:26;10.50;99.90
31729;DHT22;18309;43.658;1.312;2023-11-19T02:11:52;10.40;99.90
31729;DHT22;18309;43.658;1.312;2023-11-19T02:14:24;10.40;99.90
31729;DHT22;18309;43.658;1.312;2023-11-19T02:16:51;10.40;99.90
31729;DHT22;18309;43.658;1.312;2023-11-19T02:19:19;10.40;99.90
31729;DHT22;18309;43.658;1.312;2023-11-19T02:21:45;10.40;99.90
31729;DHT22;18309;43.658;1.312;2023-11-19T02:24:12;10.40;99.90
31729;DHT22;18309;43.658;1.312;2023-11-19T02:26:40;10.30;99.90
31729;DHT22;18309;43.658;1.312;2023-11-19T02:29:07;10.30;99.90
31729;DHT22;18309;43.658;1.312;2023-11-19T02:31:33;10.30;99.90
31729;DHT22;18309;43.658;1.312;2023-11-19T02:34:00;10.30;99.90
31729;DHT22;18309;43.658;1.312;2023-11-19T02:36:27;10.30;99.90
31729;DHT22;18309;43.658;1.312;2023-11-19T02:38:53;10.30;99.90
31729;DHT22;18309;43.658;1.312;2023-11-19T02:41:19;10.30;99.90
31729;DHT22;18309;43.658;1.312;2023-11-19T02:43:45;10.30;99.90
31729;DHT22;18309;43.658;1.312;2023-11-19T02:46:13;10.30;99.90
31729;DHT22;18309;43.658;1.312;2023-11-19T02:48:39;10.20;99.90
31729;DHT22;18309;43.658;1.312;2023-11-19T02:51:05;10.20;99.90
31729;DHT22;18309;43.658;1.312;2023-11-19T02:53:35;10.20;99.90
31729;DHT22;18309;43.658;1.312;2023-11-19T02:56:00;10.20;99.90
31729;DHT22;18309;43.658;1.312;2023-11-19T02:58:37;10.20;99.90
31729;DHT22;18309;43.658;1.312;2023-11-19T03:01:04;10.20;99.90
31729;DHT22;18309;43.658;1.312;2023-11-19T03:03:38;10.20;99.90
31729;DHT22;18309;43.658;1.312;2023-11-19T03:06:06;10.10;99.90
31729;DHT22;18309;43.658;1.312;2023-11-19T03:08:35;10.10;99.90
31729;DHT22;18309;43.658;1.312;2023-11-19T03:11:01;10.10;99.90
31729;DHT22;18309;43.658;1.312;2023-11-19T03:13:27;10.10;99.90
31729;DHT22;18309;43.658;1.312;2023-11-19T03:15:53;10.10;99.90
31729;DHT22;18309;43.658;1.312;2023-11-19T03:18:21;10.10;99.90
31729;DHT22;18309;43.658;1.312;2023-11-19T03:20:47;10.10;99.90
31729;DHT22;18309;43.658;1.312;2023-11-19T03:23:13;10.00;99.90
31729;DHT22;18309;43.658;1.312;2023-11-19T03:25:39;10.00;99.90
31729;DHT22;18309;43.658;1.312;2023-11-19T03:28:04;10.00;99.90
31729;DHT22;18309;43.658;1.312;2023-11-19T03:30:31;10.00;99.90
31729;DHT22;18309;43.658;1.312;2023-11-19T03:32:57;10.00;99.90
31729;DHT22;18309;43.658;1.312;2023-11-19T03:35:23;10.00;99.90
31729;DHT22;18309;43.658;1.312;2023-11-19T03:37:50;10.00;99.90
31729;DHT22;18309;43.658;1.312;2023-11-19T03:40:16;10.00;99.90
31729;DHT22;18309;43.658;1.312;2023-11-19T03:42:42;10.00;99.90
31729;DHT22;18309;43.658;1.312;2023-11-19T03:45:09;9.90;99.90
31729;DHT22;18309;43.658;1.312;2023-11-19T03:47:35;9.90;99.90
31729;DHT22;18309;43.658;1.312;2023-11-19T03:50:01;9.90;99.90
31729;DHT22;18309;43.658;1.312;2023-11-19T03:52:28;9.90;99.90
31729;DHT22;18309;43.658;1.312;2023-11-19T03:54:54;9.90;99.90
31729;DHT22;18309;43.658;1.312;2023-11-19T03:57:22;9.90;99.90
31729;DHT22;18309;43.658;1.312;2023-11-19T03:59:49;9.90;99.90
31729;DHT22;18309;43.658;1.312;2023-11-19T04:02:16;9.80;99.90
31729;DHT22;18309;43.658;1.312;2023-11-19T04:04:41;9.90;99.90
31729;DHT22;18309;43.658;1.312;2023-11-19T04:07:08;9.80;99.90
31729;DHT22;18309;43.658;1.312;2023-11-19T04:09:33;9.90;99.90
31729;DHT22;18309;43.658;1.312;2023-11-19T04:12:00;9.80;99.90
31729;DHT22;18309;43.658;1.312;2023-11-19T04:14:26;9.80;99.90
31729;DHT22;18309;43.658;1.312;2023-11-19T04:16:52;9.80;99.90
31729;DHT22;18309;43.658;1.312;2023-11-19T04:19:18;9.80;99.90
31729;DHT22;18309;43.658;1.312;2023-11-19T04:21:44;9.80;99.90
31729;DHT22;18309;43.658;1.312;2023-11-19T04:24:10;9.80;99.90
31729;DHT22;18309;43.658;1.312;2023-11-19T04:26:43;9.80;99.90
31729;DHT22;18309;43.658;1.312;2023-11-19T04:29:11;9.80;99.90
31729;DHT22;18309;43.658;1.312;2023-11-19T04:31:37;9.80;99.90
31729;DHT22;18309;43.658;1.312;2023-11-19T04:34:03;9.80;99.90
31729;DHT22;18309;43.658;1.312;2023-11-19T04:36:29;9.80;99.90
31729;DHT22;18309;43.658;1.312;2023-11-19T04:38:55;9.80;99.90
31729;DHT22;18309;43.658;1.312;2023-11-19T04:41:21;9.80;99.90
31729;DHT22;18309;43.658;1.312;2023-11-19T04:43:46;9.80;99.90
31729;DHT22;18309;43.658;1.312;2023-11-19T04:46:12;9.80;99.90
31729;DHT22;18309;43.658;1.312;2023-11-19T04:48:38;9.80;99.90
31729;DHT22;18309;43.658;1.312;2023-11-19T04:51:06;9.70;99.90
31729;DHT22;18309;43.658;1.312;2023-11-19T04:53:32;9.80;99.90
31729;DHT22;18309;43.658;1.312;2023-11-19T04:55:58;9.70;99.90
31729;DHT22;18309;43.658;1.312;2023-11-19T04:58:24;9.80;99.90
31729;DHT22;18309;43.658;1.312;2023-11-19T05:00:50;9.70;99.90
31729;DHT22;18309;43.658;1.312;2023-11-19T05:03:16;9.70;99.90
31729;DHT22;18309;43.658;1.312;2023-11-19T05:05:41;9.70;99.90
31729;DHT22;18309;43.658;1.312;2023-11-19T05:08:07;9.70;99.90
31729;DHT22;18309;43.658;1.312;2023-11-19T05:10:33;9.70;99.90
31729;DHT22;18309;43.658;1.312;2023-11-19T05:12:58;9.70;99.90
31729;DHT22;18309;43.658;1.312;2023-11-19T05:15:24;9.70;99.90
31729;DHT22;18309;43.658;1.312;2023-11-19T05:17:50;9.70;99.90
31729;DHT22;18309;43.658;1.312;2023-11-19T05:20:15;9.70;99.90
31729;DHT22;18309;43.658;1.312;2023-11-19T05:22:42;9.70;99.90
31729;DHT22;18309;43.658;1.312;2023-11-19T05:25:09;9.70;99.90
31729;DHT22;18309;43.658;1.312;2023-11-19T05:27:36;9.70;99.90
31729;DHT22;18309;43.658;1.312;2023-11-19T05:30:05;9.70;99.90
31729;DHT22;18309;43.658;1.312;2023-11-19T05:32:36;9.60;99.90
31729;DHT22;18309;43.658;1.312;2023-11-19T05:35:01;9.60;99.90
31729;DHT22;18309;43.658;1.312;2023-11-19T05:37:27;9.60;99.90
31729;DHT22;18309;43.658;1.312;2023-11-19T05:39:53;9.60;99.90
31729;DHT22;18309;43.658;1.312;2023-11-19T05:42:18;9.60;99.90
31729;DHT22;18309;43.658;1.312;2023-11-19T05:44:44;9.60;99.90
31729;DHT22;18309;43.658;1.312;2023-11-19T05:47:10;9.60;99.90
31729;DHT22;18309;43.658;1.312;2023-11-19T05:49:35;9.60;99.90
31729;DHT22;18309;43.658;1.312;2023-11-19T05:52:01;9.60;99.90
31729;DHT22;18309;43.658;1.312;2023-11-19T05:54:28;9.60;99.90
31729;DHT22;18309;43.658;1.312;2023-11-19T05:56:54;9.50;99.90
31729;DHT22;18309;43.658;1.312;2023-11-19T05:59:20;9.60;99.90
31729;DHT22;18309;43.658;1.312;2023-11-19T06:01:48;9.60;99.90
31729;DHT22;18309;43.658;1.312;2023-11-19T06:04:13;9.60;99.90
31729;DHT22;18309;43.658;1.312;2023-11-19T06:06:39;9.60;99.90
31729;DHT22;18309;43.658;1.312;2023-11-19T06:09:06;9.60;99.90
31729;DHT22;18309;43.658;1.312;2023-11-19T06:11:33;9.50;99.90
31729;DHT22;18309;43.658;1.312;2023-11-19T06:13:59;9.50;99.90
31729;DHT22;18309;43.658;1.312;2023-11-19T06:16:25;9.50;99.90
31729;DHT22;18309;43.658;1.312;2023-11-19T06:18:50;9.50;99.90
31729;DHT22;18309;43.658;1.312;2023-11-19T06:21:16;9.50;99.90
31729;DHT22;18309;43.658;1.312;2023-11-19T06:23:42;9.50;99.90
31729;DHT22;18309;43.658;1.312;2023-11-19T06:26:07;9.40;99.90
31729;DHT22;18309;43.658;1.312;2023-11-19T06:28:34;9.30;99.90
31729;DHT22;18309;43.658;1.312;2023-11-19T06:30:59;9.30;99.90
31729;DHT22;18309;43.658;1.312;2023-11-19T06:33:25;9.30;99.90
31729;DHT22;18309;43.658;1.312;2023-11-19T06:35:52;9.30;99.90
31729;DHT22;18309;43.658;1.312;2023-11-19T06:38:17;9.30;99.90
31729;DHT22;18309;43.658;1.312;2023-11-19T06:40:43;9.30;99.90
31729;DHT22;18309;43.658;1.312;2023-11-19T06:43:08;9.30;99.90
31729;DHT22;18309;43.658;1.312;2023-11-19T06:45:34;9.40;99.90
31729;DHT22;18309;43.658;1.312;2023-11-19T06:48:02;9.40;99.90
31729;DHT22;18309;43.658;1.312;2023-11-19T06:50:30;9.40;99.90
31729;DHT22;18309;43.658;1.312;2023-11-19T06:52:55;9.40;99.90
31729;DHT22;18309;43.658;1.312;2023-11-19T06:55:21;9.40;99.90
31729;DHT22;18309;43.658;1.312;2023-11-19T06:57:47;9.40;99.90
31729;DHT22;18309;43.658;1.312;2023-11-19T07:00:13;9.40;99.90
31729;DHT22;18309;43.658;1.312;2023-11-19T07:02:38;9.30;99.90
31729;DHT22;18309;43.658;1.312;2023-11-19T07:05:05;9.40;99.90
31729;DHT22;18309;43.658;1.312;2023-11-19T07:07:31;9.30;99.90
31729;DHT22;18309;43.658;1.312;2023-11-19T07:09:58;9.30;99.90
31729;DHT22;18309;43.658;1.312;2023-11-19T07:12:24;9.30;99.90
31729;DHT22;18309;43.658;1.312;2023-11-19T07:14:52;9.40;99.90
31729;DHT22;18309;43.658;1.312;2023-11-19T07:17:18;9.30;99.90
31729;DHT22;18309;43.658;1.312;2023-11-19T07:19:44;9.30;99.90
31729;DHT22;18309;43.658;1.312;2023-11-19T07:22:09;9.30;99.90
31729;DHT22;18309;43.658;1.312;2023-11-19T07:24:39;9.30;99.90
31729;DHT22;18309;43.658;1.312;2023-11-19T07:27:04;9.30;99.90
31729;DHT22;18309;43.658;1.312;2023-11-19T07:29:30;9.30;99.90
31729;DHT22;18309;43.658;1.312;2023-11-19T07:31:57;9.30;99.90
31729;DHT22;18309;43.658;1.312;2023-11-19T07:34:24;9.30;99.90
31729;DHT22;18309;43.658;1.312;2023-11-19T07:36:51;9.30;99.90
31729;DHT22;18309;43.658;1.312;2023-11-19T07:39:17;9.30;99.90
31729;DHT22;18309;43.658;1.312;2023-11-19T07:41:43;9.40;99.90
31729;DHT22;18309;43.658;1.312;2023-11-19T07:44:08;9.30;99.90
31729;DHT22;18309;43.658;1.312;2023-11-19T07:46:34;9.40;99.90
31729;DHT22;18309;43.658;1.312;2023-11-19T07:48:59;9.40;99.90
31729;DHT22;18309;43.658;1.312;2023-11-19T07:51:25;9.40;99.90
31729;DHT22;18309;43.658;1.312;2023-11-19T07:53:51;9.40;99.90
31729;DHT22;18309;43.658;1.312;2023-11-19T07:56:16;9.40;99.90
31729;DHT22;18309;43.658;1.312;2023-11-19T07:58:42;9.40;99.90
31729;DHT22;18309;43.658;1.312;2023-11-19T08:01:08;9.40;99.90
31729;DHT22;18309;43.658;1.312;2023-11-19T08:03:34;9.40;99.90
31729;DHT22;18309;43.658;1.312;2023-11-19T08:06:00;9.40;99.90
31729;DHT22;18309;43.658;1.312;2023-11-19T08:08:27;9.50;99.90
31729;DHT22;18309;43.658;1.312;2023-11-19T08:10:55;9.40;99.90
31729;DHT22;18309;43.658;1.312;2023-11-19T08:13:23;9.40;99.90
31729;DHT22;18309;43.658;1.312;2023-11-19T08:15:48;9.40;99.90
31729;DHT22;18309;43.658;1.312;2023-11-19T08:18:14;9.50;99.90
31729;DHT22;18309;43.658;1.312;2023-11-19T08:20:40;9.60;99.90
31729;DHT22;18309;43.658;1.312;2023-11-19T08:23:06;9.60;99.90
31729;DHT22;18309;43.658;1.312;2023-11-19T08:25:36;9.60;99.90
31729;DHT22;18309;43.658;1.312;2023-11-19T08:28:01;9.70;99.90
31729;DHT22;18309;43.658;1.312;2023-11-19T08:30:29;9.70;99.90
31729;DHT22;18309;43.658;1.312;2023-11-19T08:32:55;9.80;99.90
31729;DHT22;18309;43.658;1.312;2023-11-19T08:35:20;9.70;99.90
31729;DHT22;18309;43.658;1.312;2023-11-19T08:37:46;9.70;99.90
31729;DHT22;18309;43.658;1.312;2023-11-19T08:40:12;9.70;99.90
31729;DHT22;18309;43.658;1.312;2023-11-19T08:42:41;9.70;99.90
31729;DHT22;18309;43.658;1.312;2023-11-19T08:45:07;9.80;99.90
31729;DHT22;18309;43.658;1.312;2023-11-19T08:47:36;9.80;99.90
31729;DHT22;18309;43.658;1.312;2023-11-19T08:50:01;9.80;99.90
31729;DHT22;18309;43.658;1.312;2023-11-19T08:52:27;9.90;99.90
31729;DHT22;18309;43.658;1.312;2023-11-19T08:54:52;10.00;99.90
31729;DHT22;18309;43.658;1.312;2023-11-19T08:57:18;10.10;99.90
31729;DHT22;18309;43.658;1.312;2023-11-19T08:59:44;10.20;99.90
31729;DHT22;18309;43.658;1.312;2023-11-19T09:02:11;10.20;99.90
31729;DHT22;18309;43.658;1.312;2023-11-19T09:04:36;10.30;99.90
31729;DHT22;18309;43.658;1.312;2023-11-19T09:07:02;10.30;99.90
31729;DHT22;18309;43.658;1.312;2023-11-19T09:09:29;10.40;99.90
31729;DHT22;18309;43.658;1.312;2023-11-19T09:11:55;10.40;99.90
31729;DHT22;18309;43.658;1.312;2023-11-19T09:14:21;10.50;99.90
31729;DHT22;18309;43.658;1.312;2023-11-19T09:16:51;10.60;99.90
31729;DHT22;18309;43.658;1.312;2023-11-19T09:19:17;10.60;99.90
31729;DHT22;18309;43.658;1.312;2023-11-19T09:21:43;10.70;99.90
31729;DHT22;18309;43.658;1.312;2023-11-19T09:24:09;10.80;99.90
31729;DHT22;18309;43.658;1.312;2023-11-19T09:26:35;10.80;99.90
31729;DHT22;18309;43.658;1.312;2023-11-19T09:29:01;10.90;99.90
31729;DHT22;18309;43.658;1.312;2023-11-19T09:31:27;11.00;99.90
31729;DHT22;18309;43.658;1.312;2023-11-19T09:33:53;11.10;99.90
31729;DHT22;18309;43.658;1.312;2023-11-19T09:36:18;11.20;99.90
31729;DHT22;18309;43.658;1.312;2023-11-19T09:38:45;11.20;99.90
31729;DHT22;18309;43.658;1.312;2023-11-19T09:41:11;11.30;99.90
31729;DHT22;18309;43.658;1.312;2023-11-19T09:43:42;11.40;99.90
31729;DHT22;18309;43.658;1.312;2023-11-19T09:46:13;11.50;99.90
31729;DHT22;18309;43.658;1.312;2023-11-19T09:48:41;11.60;99.90
31729;DHT22;18309;43.658;1.312;2023-11-19T09:51:11;11.60;99.90
31729;DHT22;18309;43.658;1.312;2023-11-19T09:53:37;11.80;99.90
31729;DHT22;18309;43.658;1.312;2023-11-19T09:56:06;11.80;99.90
31729;DHT22;18309;43.658;1.312;2023-11-19T09:58:33;11.80;99.90
31729;DHT22;18309;43.658;1.312;2023-11-19T10:01:00;11.90;99.90
31729;DHT22;18309;43.658;1.312;2023-11-19T10:03:33;12.00;99.90
31729;DHT22;18309;43.658;1.312;2023-11-19T10:06:09;12.10;99.90
31729;DHT22;18309;43.658;1.312;2023-11-19T10:08:39;12.10;99.90
31729;DHT22;18309;43.658;1.312;2023-11-19T10:11:08;12.20;99.90
31729;DHT22;18309;43.658;1.312;2023-11-19T10:13:36;12.20;99.90
31729;DHT22;18309;43.658;1.312;2023-11-19T10:16:08;12.20;99.90
31729;DHT22;18309;43.658;1.312;2023-11-19T10:18:34;12.40;99.90
31729;DHT22;18309;43.658;1.312;2023-11-19T10:21:04;12.40;99.90
31729;DHT22;18309;43.658;1.312;2023-11-19T10:23:31;12.40;99.90
31729;DHT22;18309;43.658;1.312;2023-11-19T10:26:04;12.50;99.90
31729;DHT22;18309;43.658;1.312;2023-11-19T10:28:39;12.60;99.90
31729;DHT22;18309;43.658;1.312;2023-11-19T10:31:06;12.60;99.90
31729;DHT22;18309;43.658;1.312;2023-11-19T10:33:32;12.60;99.90
31729;DHT22;18309;43.658;1.312;2023-11-19T10:35:59;12.80;99.90
31729;DHT22;18309;43.658;1.312;2023-11-19T10:38:25;12.80;99.90
31729;DHT22;18309;43.658;1.312;2023-11-19T10:40:52;12.80;99.90
31729;DHT22;18309;43.658;1.312;2023-11-19T10:43:18;12.90;99.90
31729;DHT22;18309;43.658;1.312;2023-11-19T10:45:44;13.00;99.90
31729;DHT22;18309;43.658;1.312;2023-11-19T10:48:10;13.10;99.90
31729;DHT22;18309;43.658;1.312;2023-11-19T10:50:39;13.10;99.90
31729;DHT22;18309;43.658;1.312;2023-11-19T10:53:07;13.20;99.90
31729;DHT22;18309;43.658;1.312;2023-11-19T10:55:35;13.20;99.90
31729;DHT22;18309;43.658;1.312;2023-11-19T10:58:08;13.20;99.90
31729;DHT22;18309;43.658;1.312;2023-11-19T11:00:39;13.30;99.90
31729;DHT22;18309;43.658;1.312;2023-11-19T11:03:25;13.40;99.90
31729;DHT22;18309;43.658;1.312;2023-11-19T11:05:55;13.40;99.90
31729;DHT22;18309;43.658;1.312;2023-11-19T11:08:21;13.60;99.90
31729;DHT22;18309;43.658;1.312;2023-11-19T11:10:54;13.70;99.90
31729;DHT22;18309;43.658;1.312;2023-11-19T11:13:23;13.80;99.90
31729;DHT22;18309;43.658;1.312;2023-11-19T11:15:55;13.90;99.90
31729;DHT22;18309;43.658;1.312;2023-11-19T11:18:23;13.80;99.90
31729;DHT22;18309;43.658;1.312;2023-11-19T11:20:57;14.00;99.90
31729;DHT22;18309;43.658;1.312;2023-11-19T11:29:05;14.40;99.90
31729;DHT22;18309;43.658;1.312;2023-11-19T11:37:11;14.40;99.90
31729;DHT22;18309;43.658;1.312;2023-11-19T11:39:42;14.40;99.90
31729;DHT22;18309;43.658;1.312;2023-11-19T11:45:09;14.60;99.90
31729;DHT22;18309;43.658;1.312;2023-11-19T11:50:14;14.90;99.90
31729;DHT22;18309;43.658;1.312;2023-11-19T11:58:26;15.10;99.90
31729;DHT22;18309;43.658;1.312;2023-11-19T12:00:52;15.10;99.90
31729;DHT22;18309;43.658;1.312;2023-11-19T12:03:21;15.30;99.90
31729;DHT22;18309;43.658;1.312;2023-11-19T12:05:48;15.70;99.90
31729;DHT22;18309;43.658;1.312;2023-11-19T12:08:15;15.80;99.90
31729;DHT22;18309;43.658;1.312;2023-11-19T12:10:52;15.80;99.90
31729;DHT22;18309;43.658;1.312;2023-11-19T12:13:19;16.00;99.90
31729;DHT22;18309;43.658;1.312;2023-11-19T12:18:28;16.20;99.90
31729;DHT22;18309;43.658;1.312;2023-11-19T12:21:00;16.20;99.90
31729;DHT22;18309;43.658;1.312;2023-11-19T12:23:29;16.20;99.90
31729;DHT22;18309;43.658;1.312;2023-11-19T12:25:56;16.30;99.90
31729;DHT22;18309;43.658;1.312;2023-11-19T12:28:21;16.40;99.90
31729;DHT22;18309;43.658;1.312;2023-11-19T12:30:50;16.60;99.90
31729;DHT22;18309;43.658;1.312;2023-11-19T12:33:17;16.60;99.90
31729;DHT22;18309;43.658;1.312;2023-11-19T12:35:45;16.70;99.90
31729;DHT22;18309;43.658;1.312;2023-11-19T12:38:21;16.70;99.90
31729;DHT22;18309;43.658;1.312;2023-11-19T12:40:47;16.60;99.90
31729;DHT22;18309;43.658;1.312;2023-11-19T12:43:27;16.80;99.90
31729;DHT22;18309;43.658;1.312;2023-11-19T12:45:52;17.00;99.90
31729;DHT22;18309;43.658;1.312;2023-11-19T12:48:18;17.20;99.90
31729;DHT22;18309;43.658;1.312;2023-11-19T12:50:55;17.30;99.90
31729;DHT22;18309;43.658;1.312;2023-11-19T12:53:23;17.40;99.90
31729;DHT22;18309;43.658;1.312;2023-11-19T12:55:50;17.50;99.90
31729;DHT22;18309;43.658;1.312;2023-11-19T12:58:32;17.60;99.90
31729;DHT22;18309;43.658;1.312;2023-11-19T13:01:05;17.80;99.90
31729;DHT22;18309;43.658;1.312;2023-11-19T13:03:36;17.90;99.90
31729;DHT22;18309;43.658;1.312;2023-11-19T13:08:39;18.20;99.90
31729;DHT22;18309;43.658;1.312;2023-11-19T13:11:05;18.40;99.90
31729;DHT22;18309;43.658;1.312;2023-11-19T13:13:32;18.50;99.90
31729;DHT22;18309;43.658;1.312;2023-11-19T13:16:04;18.60;99.90
31729;DHT22;18309;43.658;1.312;2023-11-19T13:18:31;18.70;99.90
31729;DHT22;18309;43.658;1.312;2023-11-19T13:20:56;18.80;99.90
31729;DHT22;18309;43.658;1.312;2023-11-19T13:23:25;18.90;99.90
31729;DHT22;18309;43.658;1.312;2023-11-19T13:25:50;19.10;99.90
31729;DHT22;18309;43.658;1.312;2023-11-19T13:28:16;19.20;99.90
31729;DHT22;18309;43.658;1.312;2023-11-19T13:30:42;19.20;99.90
31729;DHT22;18309;43.658;1.312;2023-11-19T13:33:07;19.20;99.90
31729;DHT22;18309;43.658;1.312;2023-11-19T13:35:35;19.40;99.90
31729;DHT22;18309;43.658;1.312;2023-11-19T13:38:02;19.50;99.90
31729;DHT22;18309;43.658;1.312;2023-11-19T13:40:27;19.60;99.90
31729;DHT22;18309;43.658;1.312;2023-11-19T13:42:53;19.70;99.90
31729;DHT22;18309;43.658;1.312;2023-11-19T13:45:19;19.80;99.90
31729;DHT22;18309;43.658;1.312;2023-11-19T13:47:46;19.90;99.90
31729;DHT22;18309;43.658;1.312;2023-11-19T13:50:15;19.90;99.90
31729;DHT22;18309;43.658;1.312;2023-11-19T13:52:43;20.10;99.90
31729;DHT22;18309;43.658;1.312;2023-11-19T13:55:12;20.10;99.90
31729;DHT22;18309;43.658;1.312;2023-11-19T13:57:42;20.30;99.90
31729;DHT22;18309;43.658;1.312;2023-11-19T14:00:08;20.50;99.90
31729;DHT22;18309;43.658;1.312;2023-11-19T14:02:45;20.60;99.90
31729;DHT22;18309;43.658;1.312;2023-11-19T14:05:12;20.80;99.90
31729;DHT22;18309;43.658;1.312;2023-11-19T14:07:41;21.00;99.90
31729;DHT22;18309;43.658;1.312;2023-11-19T14:10:07;21.20;99.90
31729;DHT22;18309;43.658;1.312;2023-11-19T14:12:42;21.20;99.90
31729;DHT22;18309;43.658;1.312;2023-11-19T14:15:09;21.50;99.80
31729;DHT22;18309;43.658;1.312;2023-11-19T14:17:36;21.70;99.60
31729;DHT22;18309;43.658;1.312;2023-11-19T14:20:05;21.80;99.40
31729;DHT22;18309;43.658;1.312;2023-11-19T14:22:49;22.00;99.00
31729;DHT22;18309;43.658;1.312;2023-11-19T14:25:16;22.40;98.10
31729;DHT22;18309;43.658;1.312;2023-11-19T14:27:43;22.80;97.30
31729;DHT22;18309;43.658;1.312;2023-11-19T14:30:12;23.30;96.10
31729;DHT22;18309;43.658;1.312;2023-11-19T14:32:39;24.00;95.00
31729;DHT22;18309;43.658;1.312;2023-11-19T14:35:06;24.80;93.30
31729;DHT22;18309;43.658;1.312;2023-11-19T14:37:33;26.30;91.20
31729;DHT22;18309;43.658;1.312;2023-11-19T14:39:59;27.80;87.40
31729;DHT22;18309;43.658;1.312;2023-11-19T14:42:25;29.00;84.20
31729;DHT22;18309;43.658;1.312;2023-11-19T14:44:51;29.80;81.20
31729;DHT22;18309;43.658;1.312;2023-11-19T14:47:21;30.00;80.40
31729;DHT22;18309;43.658;1.312;2023-11-19T14:49:46;30.30;78.20
31729;DHT22;18309;43.658;1.312;2023-11-19T14:52:12;30.50;77.20
31729;DHT22;18309;43.658;1.312;2023-11-19T14:54:38;30.60;76.90
31729;DHT22;18309;43.658;1.312;2023-11-19T14:57:07;28.70;81.90
31729;DHT22;18309;43.658;1.312;2023-11-19T14:59:39;25.90;90.00
31729;DHT22;18309;43.658;1.312;2023-11-19T15:02:05;24.10;93.00
31729;DHT22;18309;43.658;1.312;2023-11-19T15:04:33;22.90;94.90
31729;DHT22;18309;43.658;1.312;2023-11-19T15:07:00;22.20;96.10
31729;DHT22;18309;43.658;1.312;2023-11-19T15:09:26;21.70;97.40
31729;DHT22;18309;43.658;1.312;2023-11-19T15:11:55;21.40;98.10
31729;DHT22;18309;43.658;1.312;2023-11-19T15:14:23;21.10;98.70
31729;DHT22;18309;43.658;1.312;2023-11-19T15:16:48;20.80;99.00
31729;DHT22;18309;43.658;1.312;2023-11-19T15:19:17;20.60;99.60
31729;DHT22;18309;43.658;1.312;2023-11-19T15:21:42;20.40;99.60
31729;DHT22;18309;43.658;1.312;2023-11-19T15:24:11;20.20;99.90
31729;DHT22;18309;43.658;1.312;2023-11-19T15:26:37;20.00;99.90
31729;DHT22;18309;43.658;1.312;2023-11-19T15:29:04;19.80;99.90
31729;DHT22;18309;43.658;1.312;2023-11-19T15:31:30;19.70;99.90
31729;DHT22;18309;43.658;1.312;2023-11-19T15:33:56;19.50;99.90
31729;DHT22;18309;43.658;1.312;2023-11-19T15:36:22;19.30;99.90
31729;DHT22;18309;43.658;1.312;2023-11-19T15:38:48;19.20;99.90
31729;DHT22;18309;43.658;1.312;2023-11-19T15:41:14;19.10;99.90
31729;DHT22;18309;43.658;1.312;2023-11-19T15:43:40;18.90;99.90
31729;DHT22;18309;43.658;1.312;2023-11-19T15:46:09;18.80;99.90
31729;DHT22;18309;43.658;1.312;2023-11-19T15:48:36;18.70;99.90
31729;DHT22;18309;43.658;1.312;2023-11-19T15:51:02;18.70;99.90
31729;DHT22;18309;43.658;1.312;2023-11-19T15:53:31;18.50;99.90
31729;DHT22;18309;43.658;1.312;2023-11-19T15:55:57;18.40;99.90
31729;DHT22;18309;43.658;1.312;2023-11-19T15:58:23;18.30;99.90
31729;DHT22;18309;43.658;1.312;2023-11-19T16:00:49;18.20;99.90
31729;DHT22;18309;43.658;1.312;2023-11-19T16:03:14;18.10;99.90